Time;durP1;ratioP1;P1;durP2;ratioP2;P2;SDS_P1;SDS_P2;PMS_P1;PMS_P2;Temp;Humidity;BMP_temperature;BMP_pressure;BME280_temperature;BME280_humidity;BME280_pressure;Samples;Min_cycle;Max_cycle;Signal;HPM_P1;HPM_P2
2023/08/11 00:01:38;;;;;;;4.78;1.80;;;;;;;17.87;57.73;95386.25;5085726;28;20110;-84
2023/08/11 00:04:03;;;;;;;2.40;1.50;;;;;;;17.87;57.69;95377.91;5085339;28;20468;-84
2023/08/11 00:06:30;;;;;;;1.67;1.50;;;;;;;17.91;57.42;95386.09;5084270;28;20035;-85
2023/08/11 00:08:55;;;;;;;1.67;1.33;;;;;;;17.98;57.46;95382.94;5084884;28;20082;-85
2023/08/11 00:11:22;;;;;;;2.83;1.58;;;;;;;18.03;57.30;95377.50;5085953;28;20052;-84
2023/08/11 00:13:48;;;;;;;2.30;1.52;;;;;;;18.04;57.18;95376.25;5068039;28;20414;-84
2023/08/11 00:16:14;;;;;;;3.55;1.55;;;;;;;18.07;57.25;95374.53;5068416;28;20083;-84
2023/08/11 00:18:40;;;;;;;4.53;2.53;;;;;;;18.06;56.91;95372.97;5085726;28;20546;-84
2023/08/11 00:21:05;;;;;;;4.35;1.70;;;;;;;18.08;56.82;95373.28;5076609;28;20049;-85
2023/08/11 00:23:31;;;;;;;2.00;1.45;;;;;;;18.09;57.11;95371.28;5086124;28;20032;-84
2023/08/11 00:25:57;;;;;;;1.92;1.50;;;;;;;17.99;57.29;95368.56;5085278;28;20020;-85
2023/08/11 00:28:22;;;;;;;3.67;1.60;;;;;;;17.96;57.04;95372.31;5067335;28;20038;-85
2023/08/11 00:30:48;;;;;;;1.95;1.60;;;;;;;17.93;57.15;95369.69;5086180;28;20020;-84
2023/08/11 00:33:14;;;;;;;1.50;1.23;;;;;;;17.94;57.00;95362.88;5084546;28;20043;-85
2023/08/11 00:35:42;;;;;;;2.55;1.40;;;;;;;18.00;57.34;95366.53;5085817;28;20024;-84
2023/08/11 00:38:07;;;;;;;2.80;1.35;;;;;;;17.93;57.49;95361.34;5084989;28;20063;-84
2023/08/11 00:40:33;;;;;;;1.95;1.40;;;;;;;17.87;57.37;95369.56;5067356;28;20086;-84
2023/08/11 00:42:58;;;;;;;3.15;1.40;;;;;;;17.93;56.91;95375.25;5068377;28;20445;-85
2023/08/11 00:45:23;;;;;;;2.95;1.50;;;;;;;17.95;57.59;95372.75;5085457;28;20031;-85
2023/08/11 00:47:49;;;;;;;2.33;1.20;;;;;;;17.95;57.60;95381.91;5067674;28;20028;-84
2023/08/11 00:50:17;;;;;;;3.65;1.60;;;;;;;17.87;57.82;95377.91;5067535;28;20026;-85
2023/08/11 00:52:44;;;;;;;3.25;1.80;;;;;;;17.82;57.91;95381.34;5084433;28;20028;-84
2023/08/11 00:55:10;;;;;;;3.58;1.55;;;;;;;17.78;58.33;95387.09;5084605;28;20047;-84
2023/08/11 00:57:37;;;;;;;1.85;1.50;;;;;;;17.87;58.33;95388.28;5066969;28;20546;-85
2023/08/11 01:00:13;;;;;;;6.35;2.17;;;;;;;17.93;58.15;95380.81;5084740;28;20457;-84
2023/08/11 01:02:41;;;;;;;3.08;1.52;;;;;;;17.87;58.44;95372.34;5068231;28;20028;-84
2023/08/11 01:05:08;;;;;;;3.78;1.42;;;;;;;17.83;58.22;95374.53;5068726;28;20371;-85
2023/08/11 01:07:39;;;;;;;3.20;1.80;;;;;;;17.78;58.67;95380.78;5067298;28;20040;-86
2023/08/11 01:10:16;;;;;;;3.85;1.58;;;;;;;17.84;58.59;95380.91;5067678;28;20490;-85
2023/08/11 01:13:01;;;;;;;2.00;1.63;;;;;;;17.88;58.54;95367.56;5085539;28;20027;-86
2023/08/11 01:15:31;;;;;;;3.60;1.65;;;;;;;17.84;58.52;95373.31;5085282;28;20032;-86
2023/08/11 01:17:57;;;;;;;2.45;1.55;;;;;;;17.88;58.63;95373.13;5067796;28;20024;-86
2023/08/11 01:20:23;;;;;;;2.50;1.50;;;;;;;17.83;58.70;95376.56;5086671;28;20036;-86
2023/08/11 01:22:54;;;;;;;4.05;2.05;;;;;;;17.85;58.47;95379.66;5087721;28;20037;-83
2023/08/11 01:25:20;;;;;;;2.25;1.70;;;;;;;17.81;58.83;95381.84;5099110;28;20028;-84
2023/08/11 01:27:57;;;;;;;3.17;2.05;;;;;;;17.79;58.66;95382.31;5071131;28;20115;-83
2023/08/11 01:30:27;;;;;;;3.53;1.70;;;;;;;17.75;58.80;95381.72;5071153;28;20100;-84
2023/08/11 01:32:53;;;;;;;5.60;2.10;;;;;;;17.73;58.93;95381.44;5088457;28;20490;-84
2023/08/11 01:35:22;;;;;;;2.72;1.85;;;;;;;17.71;58.90;95384.63;5071115;28;20035;-84
2023/08/11 01:37:47;;;;;;;4.15;1.92;;;;;;;17.67;58.99;95386.84;5087193;28;20020;-84
2023/08/11 01:40:14;;;;;;;2.67;1.70;;;;;;;17.63;59.33;95383.47;5070400;28;20081;-83
2023/08/11 01:42:44;;;;;;;2.42;1.77;;;;;;;17.66;59.04;95385.31;5087390;28;20032;-83
2023/08/11 01:45:12;;;;;;;4.53;1.58;;;;;;;17.62;59.12;95381.16;5088532;28;20028;-83
2023/08/11 01:47:39;;;;;;;2.83;1.85;;;;;;;17.61;59.55;95382.41;5070662;28;20500;-84
2023/08/11 01:50:07;;;;;;;2.53;1.73;;;;;;;17.56;59.23;95389.38;5070035;28;20067;-83
2023/08/11 01:52:35;;;;;;;4.05;1.75;;;;;;;17.56;59.51;95381.03;5070472;28;20035;-83
2023/08/11 01:55:01;;;;;;;4.55;2.05;;;;;;;17.55;59.68;95385.06;5087135;28;20034;-83
2023/08/11 01:57:26;;;;;;;3.13;1.98;;;;;;;17.53;59.39;95379.19;5087585;28;20016;-83
2023/08/11 01:59:52;;;;;;;3.42;1.90;;;;;;;17.49;59.75;95368.25;5086877;28;20421;-83
2023/08/11 02:02:18;;;;;;;2.58;1.90;;;;;;;17.43;59.77;95384.03;5088252;28;20028;-83
2023/08/11 02:04:43;;;;;;;4.78;1.85;;;;;;;17.37;59.58;95365.69;5087396;28;20043;-83
2023/08/11 02:07:09;;;;;;;4.85;1.95;;;;;;;17.40;59.67;95381.44;5087897;28;20107;-85
2023/08/11 02:09:34;;;;;;;2.85;2.30;;;;;;;17.32;60.09;95388.53;5087009;28;20425;-83
2023/08/11 02:12:03;;;;;;;2.45;2.00;;;;;;;17.37;60.14;95388.69;5070278;28;20450;-83
2023/08/11 02:14:29;;;;;;;2.90;1.98;;;;;;;17.30;60.52;95379.91;5086923;28;20520;-82
2023/08/11 02:16:54;;;;;;;2.45;1.55;;;;;;;17.23;60.57;95384.59;5088262;28;20485;-83
2023/08/11 02:19:20;;;;;;;2.17;1.80;;;;;;;17.29;60.78;95386.72;5086473;28;20028;-84
2023/08/11 02:21:45;;;;;;;3.00;2.08;;;;;;;17.31;60.76;95389.78;5088030;28;20039;-85
2023/08/11 02:24:11;;;;;;;2.90;2.15;;;;;;;17.34;60.72;95388.88;5087877;28;20099;-84
2023/08/11 02:26:37;;;;;;;2.60;1.85;;;;;;;17.29;60.96;95383.94;5087242;28;20062;-84
2023/08/11 02:29:03;;;;;;;4.03;2.05;;;;;;;17.28;61.27;95396.31;5091001;28;20020;-84
2023/08/11 02:31:31;;;;;;;2.53;1.90;;;;;;;17.23;61.20;95390.13;5092905;28;20028;-84
2023/08/11 02:33:56;;;;;;;4.38;1.92;;;;;;;17.28;61.47;95385.19;5086479;28;20482;-84
2023/08/11 02:36:23;;;;;;;3.47;2.10;;;;;;;17.30;61.09;95397.38;5069564;28;20070;-83
2023/08/11 02:38:49;;;;;;;3.83;1.90;;;;;;;17.21;61.10;95389.09;5086351;28;20032;-82
2023/08/11 02:41:15;;;;;;;2.53;2.05;;;;;;;17.23;61.25;95392.16;5087352;28;20039;-83
2023/08/11 02:43:40;;;;;;;2.40;1.73;;;;;;;17.17;61.29;95394.03;5087922;28;20032;-84
2023/08/11 02:46:05;;;;;;;2.33;1.98;;;;;;;17.12;61.34;95391.88;5086082;28;20522;-83
2023/08/11 02:48:33;;;;;;;3.75;1.90;;;;;;;17.08;61.42;95397.59;5086418;28;20406;-83
2023/08/11 02:51:03;;;;;;;3.65;1.90;;;;;;;17.12;61.52;95398.22;5069103;28;20478;-84
2023/08/11 02:53:28;;;;;;;2.92;1.90;;;;;;;17.11;61.50;95399.44;5086216;28;20032;-83
2023/08/11 02:55:54;;;;;;;4.90;2.00;;;;;;;17.07;61.47;95401.63;5087305;28;20024;-84
2023/08/11 02:58:19;;;;;;;2.92;1.88;;;;;;;17.12;61.46;95400.97;5087065;28;20024;-84
2023/08/11 03:00:46;;;;;;;3.22;1.73;;;;;;;17.10;61.80;95409.03;5087427;28;20482;-84
2023/08/11 03:03:12;;;;;;;6.10;2.40;;;;;;;17.12;61.42;95403.75;5086960;28;20391;-83
2023/08/11 03:05:38;;;;;;;2.63;2.20;;;;;;;17.14;61.21;95403.28;5086227;28;20099;-84
2023/08/11 03:08:04;;;;;;;3.00;2.45;;;;;;;17.11;61.26;95398.69;5086688;28;20035;-84
2023/08/11 03:10:29;;;;;;;4.50;1.83;;;;;;;17.14;61.10;95404.06;5068807;28;20044;-83
2023/08/11 03:12:55;;;;;;;6.07;2.20;;;;;;;17.12;61.27;95409.31;5085438;28;20574;-84
2023/08/11 03:15:21;;;;;;;2.65;2.03;;;;;;;17.14;61.36;95412.38;5087009;28;20020;-83
2023/08/11 03:17:46;;;;;;;3.63;1.95;;;;;;;17.12;61.65;95403.75;5087301;28;20031;-84
2023/08/11 03:20:12;;;;;;;2.97;2.00;;;;;;;17.04;61.87;95399.03;5085177;28;20028;-84
2023/08/11 03:22:39;;;;;;;2.17;1.80;;;;;;;17.07;62.07;95409.94;5085756;28;20511;-83
2023/08/11 03:25:07;;;;;;;3.10;1.77;;;;;;;16.98;62.29;95407.97;5086276;28;20020;-84
2023/08/11 03:27:33;;;;;;;2.60;1.60;;;;;;;16.93;62.53;95403.06;5085576;28;20539;-84
2023/08/11 03:29:59;;;;;;;2.33;1.67;;;;;;;16.92;62.88;95404.31;5085299;28;20024;-84
2023/08/11 03:32:24;;;;;;;2.17;1.77;;;;;;;16.94;62.72;95412.94;5089651;28;20106;-84
2023/08/11 03:34:50;;;;;;;2.55;1.90;;;;;;;16.89;63.06;95407.22;5092470;28;20051;-84
2023/08/11 03:37:15;;;;;;;3.15;2.00;;;;;;;16.94;62.47;95406.59;5085260;28;20497;-84
2023/08/11 03:39:41;;;;;;;4.10;2.15;;;;;;;17.01;62.38;95411.06;5085398;28;20101;-82
2023/08/11 03:42:07;;;;;;;3.97;2.00;;;;;;;17.05;62.37;95411.66;5085510;28;20081;-82
2023/08/11 03:44:32;;;;;;;2.80;2.13;;;;;;;17.05;62.44;95412.44;5085273;28;20467;-83
2023/08/11 03:46:57;;;;;;;3.75;2.40;;;;;;;17.14;62.32;95417.94;5084684;28;20064;-84
2023/08/11 03:49:23;;;;;;;3.38;1.83;;;;;;;17.13;62.39;95419.19;5085164;28;20055;-83
2023/08/11 03:51:48;;;;;;;4.82;3.85;;;;;;;17.09;61.83;95410.28;5084607;28;20103;-83
2023/08/11 03:54:13;;;;;;;3.10;2.13;;;;;;;17.14;62.11;95417.94;5084646;28;20550;-83
2023/08/11 03:56:39;;;;;;;2.78;1.80;;;;;;;17.16;62.14;95409.94;5086843;28;20023;-83
2023/08/11 03:59:04;;;;;;;2.35;2.00;;;;;;;17.16;62.10;95420.28;5085863;28;20461;-84
2023/08/11 04:01:30;;;;;;;4.45;2.45;;;;;;;17.10;62.20;95413.81;5085367;28;20020;-83
2023/08/11 04:03:55;;;;;;;3.03;2.50;;;;;;;17.16;62.22;95415.47;5084611;28;20491;-84
2023/08/11 04:06:22;;;;;;;3.65;2.30;;;;;;;17.19;61.62;95419.31;5085217;28;20020;-84
2023/08/11 04:08:48;;;;;;;7.20;3.05;;;;;;;17.25;61.39;95411.88;5085414;28;20080;-84
2023/08/11 04:11:13;;;;;;;3.90;2.47;;;;;;;17.30;61.16;95411.25;5068095;28;20111;-84
2023/08/11 04:13:39;;;;;;;4.95;2.53;;;;;;;17.25;61.29;95412.66;5085961;28;20020;-83
2023/08/11 04:16:04;;;;;;;5.45;2.33;;;;;;;17.20;61.50;95409.75;5084255;28;20458;-83
2023/08/11 04:18:29;;;;;;;6.57;2.10;;;;;;;17.24;61.68;95407.56;5068316;28;20114;-84
2023/08/11 04:20:55;;;;;;;4.22;2.22;;;;;;;17.22;61.78;95413.59;5083965;28;20466;-84
2023/08/11 04:23:20;;;;;;;4.35;2.20;;;;;;;17.16;62.19;95414.72;5085183;28;20026;-82
2023/08/11 04:25:46;;;;;;;10.27;2.30;;;;;;;17.15;62.16;95421.50;5085691;28;20069;-84
2023/08/11 04:28:12;;;;;;;2.75;1.88;;;;;;;17.14;62.07;95420.72;5085000;28;20426;-84
2023/08/11 04:30:38;;;;;;;4.20;1.85;;;;;;;17.15;62.20;95418.75;5087068;28;20028;-84
2023/08/11 04:33:03;;;;;;;2.38;2.00;;;;;;;17.19;61.92;95428.41;5068229;28;20035;-83
2023/08/11 04:35:29;;;;;;;3.42;1.90;;;;;;;17.21;62.09;95420.41;5087473;28;20032;-83
2023/08/11 04:37:54;;;;;;;3.20;2.47;;;;;;;17.18;62.14;95421.34;5095399;28;20077;-83
2023/08/11 04:40:20;;;;;;;2.30;1.90;;;;;;;17.25;62.34;95420.22;5085185;28;20028;-83
2023/08/11 04:42:46;;;;;;;3.63;2.10;;;;;;;17.27;62.11;95419.78;5084191;28;20096;-83
2023/08/11 04:45:14;;;;;;;3.10;2.22;;;;;;;17.30;61.66;95425.16;5084884;28;20073;-83
2023/08/11 04:47:40;;;;;;;3.72;2.30;;;;;;;17.29;61.97;95422.84;5084313;28;20120;-84
2023/08/11 04:50:07;;;;;;;3.75;2.63;;;;;;;17.27;61.89;95428.88;5084427;28;20103;-84
2023/08/11 04:52:33;;;;;;;2.83;2.53;;;;;;;17.22;61.85;95430.28;5084672;28;20035;-84
2023/08/11 04:54:59;;;;;;;3.58;2.20;;;;;;;17.16;62.14;95432.16;5086601;28;20028;-85
2023/08/11 04:57:24;;;;;;;3.50;2.25;;;;;;;17.10;62.31;95434.03;5090110;28;20036;-85
2023/08/11 04:59:49;;;;;;;5.18;2.20;;;;;;;17.06;62.59;95443.75;5087686;28;20031;-85
2023/08/11 05:02:15;;;;;;;3.95;2.75;;;;;;;17.13;62.52;95435.09;5088709;28;20382;-85
2023/08/11 05:04:40;;;;;;;3.40;2.22;;;;;;;17.17;62.56;95444.03;5087920;28;20115;-85
2023/08/11 05:07:08;;;;;;;3.88;2.92;;;;;;;17.13;62.70;95437.88;5088602;28;20429;-84
2023/08/11 05:09:38;;;;;;;6.18;2.60;;;;;;;17.13;62.78;95437.88;5071095;28;20193;-85
2023/08/11 05:12:04;;;;;;;5.93;2.80;;;;;;;17.14;63.19;95445.72;5087858;28;20028;-84
2023/08/11 05:14:30;;;;;;;5.45;2.58;;;;;;;17.13;62.90;95443.41;5088721;28;20030;-83
2023/08/11 05:16:55;;;;;;;7.80;3.20;;;;;;;17.08;63.17;95444.81;5088121;28;20106;-84
2023/08/11 05:19:21;;;;;;;4.13;2.72;;;;;;;17.10;63.15;95450.69;5086747;28;20111;-84
2023/08/11 05:21:46;;;;;;;3.72;2.70;;;;;;;17.10;63.28;95450.69;5087874;28;20398;-84
2023/08/11 05:24:12;;;;;;;4.22;2.95;;;;;;;17.13;63.41;95451.75;5089488;28;20024;-84
2023/08/11 05:26:38;;;;;;;4.40;2.58;;;;;;;17.18;63.60;95457.44;5087589;28;20020;-84
2023/08/11 05:29:03;;;;;;;4.30;2.80;;;;;;;17.27;63.07;95462.22;5087834;28;20036;-84
2023/08/11 05:31:29;;;;;;;4.53;3.15;;;;;;;17.30;62.89;95460.50;5087997;28;20020;-84
2023/08/11 05:33:55;;;;;;;7.00;3.47;;;;;;;17.29;63.04;95470.06;5088499;28;20036;-83
2023/08/11 05:36:21;;;;;;;5.63;3.38;;;;;;;17.32;62.96;95466.34;5088483;28;20071;-83
2023/08/11 05:38:46;;;;;;;3.75;2.95;;;;;;;17.35;62.96;95470.97;5087326;28;20058;-83
2023/08/11 05:41:11;;;;;;;4.50;3.10;;;;;;;17.42;63.05;95473.41;5092395;28;20460;-83
2023/08/11 05:43:37;;;;;;;5.80;2.75;;;;;;;17.39;63.16;95477.91;5070739;28;20058;-84
2023/08/11 05:46:06;;;;;;;8.50;3.67;;;;;;;17.42;63.23;95473.41;5087834;28;20032;-85
2023/08/11 05:48:32;;;;;;;6.18;3.28;;;;;;;17.43;63.33;95477.72;5071057;28;20124;-84
2023/08/11 05:50:57;;;;;;;3.45;2.72;;;;;;;17.44;63.03;95480.06;5086795;28;20078;-85
2023/08/11 05:53:23;;;;;;;3.47;2.95;;;;;;;17.46;62.74;95476.81;5089181;28;20027;-84
2023/08/11 05:55:49;;;;;;;5.07;2.63;;;;;;;17.49;62.59;95473.06;5089029;28;20636;-85
2023/08/11 05:58:15;;;;;;;6.85;3.20;;;;;;;17.48;62.61;95483.44;5089986;28;20027;-84
2023/08/11 06:00:40;;;;;;;4.93;3.20;;;;;;;17.52;62.06;95478.47;5086818;28;20032;-84
2023/08/11 06:03:05;;;;;;;6.82;2.97;;;;;;;17.50;62.45;95480.97;5071293;28;20402;-85
2023/08/11 06:05:31;;;;;;;5.18;3.08;;;;;;;17.58;62.20;95483.41;5087765;28;20161;-85
2023/08/11 06:07:56;;;;;;;4.13;3.65;;;;;;;17.61;61.98;95477.69;5089091;28;20493;-85
2023/08/11 06:10:22;;;;;;;5.35;3.20;;;;;;;17.62;62.33;95476.44;5087347;28;20054;-84
2023/08/11 06:12:47;;;;;;;5.90;3.53;;;;;;;17.62;61.87;95481.22;5086524;28;20097;-85
2023/08/11 06:15:12;;;;;;;5.00;3.42;;;;;;;17.71;61.95;95486.72;5088144;28;20423;-84
2023/08/11 06:17:38;;;;;;;5.53;3.80;;;;;;;17.78;61.79;95490.00;5086519;28;20059;-84
2023/08/11 06:20:05;;;;;;;6.25;3.47;;;;;;;17.83;61.61;95485.00;5070564;28;20028;-84
2023/08/11 06:22:31;;;;;;;3.53;3.10;;;;;;;17.89;60.56;95492.25;5087175;28;20482;-83
2023/08/11 06:24:57;;;;;;;4.78;3.42;;;;;;;17.91;60.48;95483.44;5086811;28;20103;-83
2023/08/11 06:27:22;;;;;;;3.00;2.63;;;;;;;17.87;60.23;95489.16;5088725;28;20095;-83
2023/08/11 06:29:48;;;;;;;5.55;3.58;;;;;;;17.86;60.31;95489.63;5086422;28;20070;-83
2023/08/11 06:32:13;;;;;;;4.43;3.30;;;;;;;17.86;60.08;95493.19;5070138;28;20020;-84
2023/08/11 06:34:39;;;;;;;4.55;3.35;;;;;;;17.93;59.97;95492.84;5086263;28;20024;-85
2023/08/11 06:37:04;;;;;;;3.70;3.40;;;;;;;17.95;59.91;95493.16;5088771;28;20023;-85
2023/08/11 06:39:29;;;;;;;4.40;3.72;;;;;;;18.02;60.30;95501.13;5087573;28;20115;-84
2023/08/11 06:41:55;;;;;;;4.55;3.80;;;;;;;18.07;60.07;95493.41;5087930;28;20073;-85
2023/08/11 06:44:20;;;;;;;5.78;3.67;;;;;;;18.13;59.70;95492.28;5089064;28;20176;-84
2023/08/11 06:46:46;;;;;;;5.20;3.67;;;;;;;18.19;59.19;95490.38;5094474;28;20024;-85
2023/08/11 06:49:11;;;;;;;4.45;3.88;;;;;;;18.26;59.21;95490.03;5087108;28;20447;-84
2023/08/11 06:51:36;;;;;;;7.07;4.22;;;;;;;18.36;58.85;95489.97;5085842;28;20035;-84
2023/08/11 06:54:02;;;;;;;5.30;4.35;;;;;;;18.41;59.18;95494.84;5087078;28;20051;-84
2023/08/11 06:56:28;;;;;;;5.82;4.32;;;;;;;18.52;59.18;95487.53;5087463;28;20035;-84
2023/08/11 06:58:53;;;;;;;7.72;5.45;;;;;;;18.55;59.09;95483.00;5087780;28;20099;-84
2023/08/11 07:01:19;;;;;;;4.55;3.78;;;;;;;18.58;58.85;95487.63;5087065;28;20024;-84
2023/08/11 07:03:44;;;;;;;6.22;4.78;;;;;;;18.64;58.28;95491.28;5085671;28;20109;-84
2023/08/11 07:06:11;;;;;;;5.63;4.90;;;;;;;18.69;58.21;95495.44;5086229;28;20020;-84
2023/08/11 07:08:36;;;;;;;8.25;5.00;;;;;;;18.81;57.96;95505.56;5085719;28;20067;-84
2023/08/11 07:11:02;;;;;;;11.32;6.50;;;;;;;18.83;57.83;95503.84;5088192;28;20067;-84
2023/08/11 07:13:27;;;;;;;7.80;5.03;;;;;;;18.95;57.23;95504.81;5085893;28;20020;-83
2023/08/11 07:15:57;;;;;;;6.97;4.80;;;;;;;18.97;57.17;95504.34;5087494;28;20020;-84
2023/08/11 07:18:23;;;;;;;4.97;4.47;;;;;;;19.07;57.22;95497.44;5068187;28;20020;-81
2023/08/11 07:20:49;;;;;;;6.45;4.50;;;;;;;19.14;56.49;95504.63;5085801;28;20063;-87
2023/08/11 07:23:16;;;;;;;5.05;4.35;;;;;;;19.23;56.26;95499.75;5085604;28;20063;-85
2023/08/11 07:25:42;;;;;;;6.03;4.20;;;;;;;19.35;56.43;95503.50;5086837;28;20111;-85
2023/08/11 07:28:07;;;;;;;6.75;4.00;;;;;;;19.46;56.24;95508.50;5086263;28;20124;-85
2023/08/11 07:30:33;;;;;;;4.40;3.67;;;;;;;19.57;55.25;95508.69;5085354;28;20039;-83
2023/08/11 07:33:00;;;;;;;5.63;3.63;;;;;;;19.60;55.24;95497.34;5068706;28;20080;-84
2023/08/11 07:35:26;;;;;;;5.18;3.72;;;;;;;19.74;54.78;95508.97;5068494;28;20045;-86
2023/08/11 07:37:51;;;;;;;5.05;4.28;;;;;;;19.81;55.19;95506.56;5085732;28;20559;-85
2023/08/11 07:40:17;;;;;;;4.95;3.67;;;;;;;19.88;54.34;95492.19;5085377;28;20032;-85
2023/08/11 07:42:43;;;;;;;4.43;3.40;;;;;;;19.96;53.65;95503.75;5085271;28;20016;-86
2023/08/11 07:45:09;;;;;;;4.88;3.63;;;;;;;20.03;53.26;95506.13;5067754;28;20580;-86
2023/08/11 07:47:34;;;;;;;4.57;3.30;;;;;;;20.09;52.98;95509.00;5089080;28;20020;-87
2023/08/11 07:49:59;;;;;;;6.82;3.97;;;;;;;20.16;53.20;95516.94;5074171;28;20114;-87
2023/08/11 07:52:25;;;;;;;4.82;3.85;;;;;;;20.23;53.35;95513.75;5086830;28;20048;-87
2023/08/11 07:54:50;;;;;;;6.13;4.22;;;;;;;20.34;52.79;95508.31;5086592;28;20032;-85
2023/08/11 07:57:16;;;;;;;3.88;3.45;;;;;;;20.50;52.15;95506.25;5085406;28;20387;-86
2023/08/11 07:59:41;;;;;;;9.90;4.00;;;;;;;20.54;52.01;95501.25;5084729;28;20574;-86
2023/08/11 08:02:07;;;;;;;4.38;3.58;;;;;;;20.66;50.65;95500.88;5084546;28;20024;-85
2023/08/11 08:04:33;;;;;;;7.85;3.35;;;;;;;20.74;50.35;95504.00;5084625;28;20020;-86
2023/08/11 08:06:58;;;;;;;4.93;3.40;;;;;;;20.86;51.04;95496.53;5085639;28;20293;-86
2023/08/11 08:09:24;;;;;;;5.25;3.00;;;;;;;21.02;50.15;95504.31;5093451;28;20514;-87
2023/08/11 08:11:50;;;;;;;5.10;3.28;;;;;;;21.12;49.50;95500.13;5079048;28;20032;-87
2023/08/11 08:14:15;;;;;;;4.10;3.00;;;;;;;21.23;49.28;95496.66;5085212;28;20478;-84
2023/08/11 08:16:47;;;;;;;5.50;4.20;;;;;;;21.36;48.48;95502.66;5085010;28;20039;-82
2023/08/11 08:19:14;;;;;;;5.40;3.25;;;;;;;21.52;48.52;95500.50;5084868;28;20032;-81
2023/08/11 08:21:41;;;;;;;5.43;3.47;;;;;;;21.64;48.37;95494.50;5068503;28;20028;-83
2023/08/11 08:24:07;;;;;;;7.32;4.00;;;;;;;21.76;48.08;95509.34;5085081;28;20062;-85
2023/08/11 08:26:33;;;;;;;7.78;4.22;;;;;;;21.92;47.56;95497.50;5085235;28;20039;-90
2023/08/11 08:28:59;;;;;;;6.20;3.67;;;;;;;22.01;47.38;95504.94;5088322;28;20032;-82
2023/08/11 08:31:26;;;;;;;5.13;4.60;;;;;;;22.06;47.10;95483.84;5089942;28;20113;-81
2023/08/11 08:33:52;;;;;;;5.13;4.25;;;;;;;22.23;46.74;95496.72;5090301;28;20043;-86
2023/08/11 08:36:17;;;;;;;4.35;3.55;;;;;;;22.34;46.53;95496.00;5087600;28;20414;-79
2023/08/11 08:38:43;;;;;;;4.53;3.40;;;;;;;22.44;45.79;95493.78;5088819;28;20036;-84
2023/08/11 08:41:09;;;;;;;6.40;3.63;;;;;;;22.64;44.84;95509.63;5064482;28;20028;-82
2023/08/11 08:43:35;;;;;;;6.10;4.05;;;;;;;22.78;45.21;95497.47;5088195;28;20082;-81
2023/08/11 08:46:04;;;;;;;5.75;3.20;;;;;;;22.98;44.42;95497.31;5088078;28;20482;-82
2023/08/11 08:48:47;;;;;;;7.00;3.78;;;;;;;23.15;43.60;95494.53;5088112;28;20020;-85
2023/08/11 08:51:13;;;;;;;4.15;2.90;;;;;;;23.30;42.71;95491.53;5087946;28;20103;-88
2023/08/11 08:53:39;;;;;;;5.85;3.85;;;;;;;23.41;43.16;95494.34;5098339;28;20031;-87
2023/08/11 08:56:05;;;;;;;4.88;3.10;;;;;;;23.58;43.17;95497.91;5064858;28;20029;-84
2023/08/11 08:58:31;;;;;;;3.40;2.97;;;;;;;23.70;42.19;95497.94;5087831;28;20034;-87
2023/08/11 09:00:59;;;;;;;4.00;2.95;;;;;;;23.76;42.37;95484.69;5087187;28;20056;-88
2023/08/11 09:03:26;;;;;;;3.85;3.20;;;;;;;23.87;41.49;95489.53;5088078;28;20024;-88
2023/08/11 09:05:51;;;;;;;5.53;3.53;;;;;;;23.99;41.26;95489.00;5086549;28;20024;-82
2023/08/11 09:08:17;;;;;;;3.70;3.13;;;;;;;24.18;41.43;95496.88;5070475;28;20020;-81
2023/08/11 09:10:42;;;;;;;4.80;2.72;;;;;;;24.34;41.03;95496.06;5086910;28;20020;-83
2023/08/11 09:13:08;;;;;;;4.78;3.35;;;;;;;24.53;40.71;95488.63;5087669;28;20024;-86
2023/08/11 09:15:33;;;;;;;3.97;2.90;;;;;;;24.66;40.33;95484.50;5087260;28;20032;-90
2023/08/11 09:17:59;;;;;;;3.45;3.00;;;;;;;24.85;39.66;95485.44;5088091;28;20067;-94
2023/08/11 09:20:26;;;;;;;6.28;3.83;;;;;;;25.07;39.26;95488.16;5089496;28;20047;-83
2023/08/11 09:22:52;;;;;;;4.53;2.97;;;;;;;25.15;38.72;95482.75;5066869;28;20120;-82
2023/08/11 09:25:18;;;;;;;4.50;2.88;;;;;;;25.18;38.52;95490.16;5069245;28;20157;-84
2023/08/11 09:27:49;;;;;;;4.18;2.85;;;;;;;25.35;37.87;95485.19;5068413;28;20051;-84
2023/08/11 09:30:14;;;;;;;3.78;2.50;;;;;;;25.50;37.97;95475.59;5074067;28;20421;-87
2023/08/11 09:32:40;;;;;;;4.75;2.47;;;;;;;25.64;37.73;95483.69;5087902;28;20016;-88
2023/08/11 09:35:09;;;;;;;5.93;2.70;;;;;;;25.93;37.01;95475.81;5087827;28;20031;-85
2023/08/11 09:37:35;;;;;;;3.53;2.63;;;;;;;26.10;36.73;95475.66;5088498;28;20564;-82
2023/08/11 09:40:03;;;;;;;6.60;2.65;;;;;;;26.38;35.52;95478.16;5068842;28;20043;-83
2023/08/11 09:42:29;;;;;;;5.18;3.47;;;;;;;26.48;34.65;95468.06;5089004;28;20422;-83
2023/08/11 09:44:54;;;;;;;2.78;2.08;;;;;;;26.68;35.33;95472.47;5088361;28;20038;-84
2023/08/11 09:47:20;;;;;;;4.05;2.50;;;;;;;26.88;34.58;95477.59;5087764;28;20028;-83
2023/08/11 09:49:45;;;;;;;2.92;2.42;;;;;;;27.04;34.51;95472.25;5086804;28;20040;-86
2023/08/11 09:52:11;;;;;;;5.03;2.53;;;;;;;27.31;33.96;95467.56;5088040;28;20055;-85
2023/08/11 09:54:38;;;;;;;2.95;2.65;;;;;;;27.50;33.39;95463.38;5089763;28;20115;-85
2023/08/11 09:57:05;;;;;;;3.88;2.50;;;;;;;27.53;33.73;95470.78;5091308;28;20099;-85
2023/08/11 09:59:31;;;;;;;3.25;2.20;;;;;;;27.46;34.03;95474.22;5088251;28;20051;-85
2023/08/11 10:01:59;;;;;;;3.65;2.80;;;;;;;27.50;34.08;95465.44;5086687;28;20490;-86
2023/08/11 10:04:28;;;;;;;4.63;2.70;;;;;;;27.55;33.77;95469.50;5070731;28;20028;-86
2023/08/11 10:06:57;;;;;;;6.85;2.80;;;;;;;27.61;33.28;95464.50;5087826;28;20036;-85
2023/08/11 10:09:23;;;;;;;5.07;2.88;;;;;;;27.57;33.47;95464.81;5086981;28;20066;-85
2023/08/11 10:11:50;;;;;;;3.53;2.70;;;;;;;27.51;33.31;95464.16;5069856;28;20024;-86
2023/08/11 10:14:17;;;;;;;6.28;3.10;;;;;;;27.49;33.29;95466.75;5070223;28;20624;-87
2023/08/11 10:16:44;;;;;;;4.30;2.70;;;;;;;27.32;32.95;95469.84;5070244;28;20024;-86
2023/08/11 10:19:11;;;;;;;4.30;2.40;;;;;;;27.17;34.43;95467.47;5086482;28;20038;-85
2023/08/11 10:21:37;;;;;;;5.55;3.05;;;;;;;27.04;34.80;95467.38;5087938;28;20111;-91
2023/08/11 10:24:02;;;;;;;6.82;3.10;;;;;;;26.83;35.11;95458.66;5070452;28;20150;-90
2023/08/11 10:26:31;;;;;;;4.65;3.00;;;;;;;26.75;35.48;95452.13;5070211;28;20028;-91
2023/08/11 10:28:57;;;;;;;4.43;3.40;;;;;;;26.58;35.19;95455.16;5071016;28;20024;-91
2023/08/11 10:31:26;;;;;;;12.38;4.30;;;;;;;26.27;36.08;95459.31;5076087;28;20383;-91
2023/08/11 10:33:53;;;;;;;5.38;4.40;;;;;;;26.12;36.09;95456.91;5076363;28;20127;-92
2023/08/11 10:36:23;;;;;;;4.72;2.80;;;;;;;25.98;36.39;95449.63;5076172;28;20028;-90
2023/08/11 10:39:05;;;;;;;4.88;3.50;;;;;;;25.86;36.51;95451.00;5093284;28;20054;-91
2023/08/11 10:41:31;;;;;;;5.18;2.78;;;;;;;25.76;36.67;95452.66;5075777;28;20065;-90
2023/08/11 10:43:57;;;;;;;6.53;3.35;;;;;;;25.52;36.81;95444.88;5078785;28;20353;-91
2023/08/11 10:46:24;;;;;;;4.72;2.97;;;;;;;25.41;37.24;95442.94;5094862;28;20071;-91
2023/08/11 10:48:53;;;;;;;3.65;2.72;;;;;;;25.37;37.24;95442.44;5076022;28;20039;-91
2023/08/11 10:51:33;;;;;;;3.42;2.78;;;;;;;25.37;37.27;95442.44;5077469;28;20056;-92
2023/08/11 10:54:25;;;;;;;4.40;3.13;;;;;;;25.43;37.76;95434.72;5074295;28;20030;-90
2023/08/11 10:56:51;;;;;;;4.82;2.85;;;;;;;25.39;37.43;95440.63;5067283;28;20036;-91
2023/08/11 10:59:17;;;;;;;3.22;2.55;;;;;;;25.49;37.71;95441.06;5097627;28;20049;-91
2023/08/11 11:01:50;;;;;;;3.30;2.80;;;;;;;25.47;37.61;95431.63;5083653;28;20118;-91
2023/08/11 11:04:17;;;;;;;5.55;2.75;;;;;;;25.57;37.99;95435.63;5071911;28;20027;-92
2023/08/11 11:06:46;;;;;;;5.53;3.50;;;;;;;25.75;37.76;95431.41;5069976;28;20028;-90
2023/08/11 11:09:13;;;;;;;5.35;2.90;;;;;;;25.81;37.12;95435.72;5087405;28;20044;-90
2023/08/11 11:11:39;;;;;;;5.70;3.33;;;;;;;25.87;36.38;95438.47;5089391;28;20287;-90
2023/08/11 11:14:09;;;;;;;5.72;3.53;;;;;;;25.91;36.42;95441.75;5074295;28;20504;-90
2023/08/11 11:16:35;;;;;;;4.63;2.90;;;;;;;26.03;36.07;95445.97;5092432;28;20023;-90
2023/08/11 11:19:05;;;;;;;5.28;2.13;;;;;;;26.07;35.14;95440.81;5075390;28;20024;-90
2023/08/11 11:21:32;;;;;;;3.40;2.80;;;;;;;26.09;34.97;95443.09;5091376;28;20016;-89
2023/08/11 11:23:58;;;;;;;3.20;2.47;;;;;;;26.09;35.66;95445.91;5097651;28;20020;-89
2023/08/11 11:26:29;;;;;;;3.95;3.20;;;;;;;26.21;35.88;95442.47;5077381;28;20028;-91
2023/08/11 11:28:56;;;;;;;3.90;3.22;;;;;;;26.25;35.57;95450.63;5087118;28;20024;-91
2023/08/11 11:31:23;;;;;;;3.70;2.38;;;;;;;26.28;35.42;95437.53;5070234;28;20063;-91